sensor_id;sensor_type;location;lat;lon;timestamp;P1;durP1;ratioP1;P2;durP2;ratioP2
4148;SDS011;2088;51.032;7.082;2023-08-08T00:02:28;1.63;;;1.40;;
4148;SDS011;2088;51.032;7.082;2023-08-08T00:04:55;1.83;;;1.40;;
4148;SDS011;2088;51.032;7.082;2023-08-08T00:07:22;3.57;;;1.40;;
4148;SDS011;2088;51.032;7.082;2023-08-08T00:09:49;4.80;;;1.40;;
4148;SDS011;2088;51.032;7.082;2023-08-08T00:12:16;7.80;;;1.70;;
4148;SDS011;2088;51.032;7.082;2023-08-08T00:14:43;2.60;;;1.30;;
4148;SDS011;2088;51.032;7.082;2023-08-08T00:17:10;1.30;;;1.20;;
4148;SDS011;2088;51.032;7.082;2023-08-08T00:19:38;7.00;;;1.53;;
4148;SDS011;2088;51.032;7.082;2023-08-08T00:22:05;3.20;;;1.97;;
4148;SDS011;2088;51.032;7.082;2023-08-08T00:24:33;1.37;;;1.27;;
4148;SDS011;2088;51.032;7.082;2023-08-08T00:27:00;1.90;;;1.23;;
4148;SDS011;2088;51.032;7.082;2023-08-08T00:29:28;2.17;;;1.60;;
4148;SDS011;2088;51.032;7.082;2023-08-08T00:31:55;6.13;;;2.33;;
4148;SDS011;2088;51.032;7.082;2023-08-08T00:34:22;1.40;;;1.30;;
4148;SDS011;2088;51.032;7.082;2023-08-08T00:36:50;9.13;;;1.50;;
4148;SDS011;2088;51.032;7.082;2023-08-08T00:39:17;1.83;;;1.73;;
4148;SDS011;2088;51.032;7.082;2023-08-08T00:41:44;5.13;;;1.43;;
4148;SDS011;2088;51.032;7.082;2023-08-08T00:44:11;2.40;;;1.70;;
4148;SDS011;2088;51.032;7.082;2023-08-08T00:46:38;2.53;;;1.70;;
4148;SDS011;2088;51.032;7.082;2023-08-08T00:49:05;4.40;;;2.10;;
4148;SDS011;2088;51.032;7.082;2023-08-08T00:51:32;4.57;;;2.23;;
4148;SDS011;2088;51.032;7.082;2023-08-08T00:54:01;2.43;;;1.50;;
4148;SDS011;2088;51.032;7.082;2023-08-08T00:56:28;2.63;;;1.80;;
4148;SDS011;2088;51.032;7.082;2023-08-08T00:58:55;2.60;;;2.17;;
4148;SDS011;2088;51.032;7.082;2023-08-08T01:01:22;3.10;;;1.50;;
4148;SDS011;2088;51.032;7.082;2023-08-08T01:03:49;1.83;;;1.63;;
4148;SDS011;2088;51.032;7.082;2023-08-08T01:06:19;1.87;;;1.47;;
4148;SDS011;2088;51.032;7.082;2023-08-08T01:08:51;3.33;;;2.20;;
4148;SDS011;2088;51.032;7.082;2023-08-08T01:11:22;2.77;;;1.77;;
4148;SDS011;2088;51.032;7.082;2023-08-08T01:13:50;4.17;;;1.53;;
4148;SDS011;2088;51.032;7.082;2023-08-08T01:16:17;3.07;;;1.83;;
4148;SDS011;2088;51.032;7.082;2023-08-08T01:18:46;2.40;;;1.73;;
4148;SDS011;2088;51.032;7.082;2023-08-08T01:21:14;1.67;;;1.53;;
4148;SDS011;2088;51.032;7.082;2023-08-08T01:23:42;3.20;;;1.70;;
4148;SDS011;2088;51.032;7.082;2023-08-08T01:26:11;2.77;;;2.10;;
4148;SDS011;2088;51.032;7.082;2023-08-08T01:28:39;1.53;;;1.43;;
4148;SDS011;2088;51.032;7.082;2023-08-08T01:31:06;3.00;;;2.27;;
4148;SDS011;2088;51.032;7.082;2023-08-08T01:33:33;2.63;;;1.90;;
4148;SDS011;2088;51.032;7.082;2023-08-08T01:36:00;5.00;;;2.00;;
4148;SDS011;2088;51.032;7.082;2023-08-08T01:38:30;2.23;;;1.73;;
4148;SDS011;2088;51.032;7.082;2023-08-08T01:40:58;1.87;;;1.67;;
4148;SDS011;2088;51.032;7.082;2023-08-08T01:43:27;2.20;;;1.87;;
4148;SDS011;2088;51.032;7.082;2023-08-08T01:45:54;4.07;;;2.30;;
4148;SDS011;2088;51.032;7.082;2023-08-08T01:48:22;14.70;;;1.80;;
4148;SDS011;2088;51.032;7.082;2023-08-08T01:50:49;1.90;;;1.50;;
4148;SDS011;2088;51.032;7.082;2023-08-08T01:53:16;2.40;;;1.90;;
4148;SDS011;2088;51.032;7.082;2023-08-08T01:55:43;1.70;;;1.30;;
4148;SDS011;2088;51.032;7.082;2023-08-08T01:58:10;4.00;;;2.10;;
4148;SDS011;2088;51.032;7.082;2023-08-08T02:00:38;3.63;;;1.70;;
4148;SDS011;2088;51.032;7.082;2023-08-08T02:03:06;7.40;;;2.03;;
4148;SDS011;2088;51.032;7.082;2023-08-08T02:05:33;2.23;;;1.70;;
4148;SDS011;2088;51.032;7.082;2023-08-08T02:08:00;2.23;;;1.50;;
4148;SDS011;2088;51.032;7.082;2023-08-08T02:10:27;2.60;;;1.60;;
4148;SDS011;2088;51.032;7.082;2023-08-08T02:12:54;2.40;;;1.70;;
4148;SDS011;2088;51.032;7.082;2023-08-08T02:15:21;1.80;;;1.50;;
4148;SDS011;2088;51.032;7.082;2023-08-08T02:17:49;1.93;;;1.63;;
4148;SDS011;2088;51.032;7.082;2023-08-08T02:20:16;2.00;;;1.53;;
4148;SDS011;2088;51.032;7.082;2023-08-08T02:22:44;3.30;;;1.93;;
4148;SDS011;2088;51.032;7.082;2023-08-08T02:25:11;4.53;;;1.77;;
4148;SDS011;2088;51.032;7.082;2023-08-08T02:27:38;2.20;;;1.73;;
4148;SDS011;2088;51.032;7.082;2023-08-08T02:30:05;3.93;;;1.90;;
4148;SDS011;2088;51.032;7.082;2023-08-08T02:32:32;2.53;;;1.80;;
4148;SDS011;2088;51.032;7.082;2023-08-08T02:35:01;1.80;;;1.43;;
4148;SDS011;2088;51.032;7.082;2023-08-08T02:37:28;2.37;;;2.03;;
4148;SDS011;2088;51.032;7.082;2023-08-08T02:39:55;5.23;;;1.90;;
4148;SDS011;2088;51.032;7.082;2023-08-08T02:42:22;3.97;;;1.73;;
4148;SDS011;2088;51.032;7.082;2023-08-08T02:44:49;2.50;;;1.77;;
4148;SDS011;2088;51.032;7.082;2023-08-08T02:47:16;1.70;;;1.60;;
4148;SDS011;2088;51.032;7.082;2023-08-08T02:49:43;1.50;;;1.40;;
4148;SDS011;2088;51.032;7.082;2023-08-08T02:52:11;2.00;;;1.80;;
4148;SDS011;2088;51.032;7.082;2023-08-08T02:54:38;1.70;;;1.57;;
4148;SDS011;2088;51.032;7.082;2023-08-08T02:57:05;2.90;;;2.33;;
4148;SDS011;2088;51.032;7.082;2023-08-08T02:59:35;2.70;;;1.90;;
4148;SDS011;2088;51.032;7.082;2023-08-08T03:02:02;1.93;;;1.60;;
4148;SDS011;2088;51.032;7.082;2023-08-08T03:04:30;2.80;;;1.60;;
4148;SDS011;2088;51.032;7.082;2023-08-08T03:06:57;2.47;;;2.20;;
4148;SDS011;2088;51.032;7.082;2023-08-08T03:09:27;1.67;;;1.57;;
4148;SDS011;2088;51.032;7.082;2023-08-08T03:11:54;1.93;;;1.73;;
4148;SDS011;2088;51.032;7.082;2023-08-08T03:14:21;3.20;;;2.40;;
4148;SDS011;2088;51.032;7.082;2023-08-08T03:16:48;2.00;;;1.47;;
4148;SDS011;2088;51.032;7.082;2023-08-08T03:19:15;5.13;;;1.73;;
4148;SDS011;2088;51.032;7.082;2023-08-08T03:21:42;3.40;;;1.60;;
4148;SDS011;2088;51.032;7.082;2023-08-08T03:24:09;2.40;;;1.70;;
4148;SDS011;2088;51.032;7.082;2023-08-08T03:26:38;5.63;;;1.80;;
4148;SDS011;2088;51.032;7.082;2023-08-08T03:29:05;5.43;;;2.17;;
4148;SDS011;2088;51.032;7.082;2023-08-08T03:31:35;2.07;;;1.87;;
4148;SDS011;2088;51.032;7.082;2023-08-08T03:34:02;3.47;;;2.40;;
4148;SDS011;2088;51.032;7.082;2023-08-08T03:36:29;2.13;;;1.80;;
4148;SDS011;2088;51.032;7.082;2023-08-08T03:38:56;2.33;;;1.70;;
4148;SDS011;2088;51.032;7.082;2023-08-08T03:41:23;5.00;;;1.77;;
4148;SDS011;2088;51.032;7.082;2023-08-08T03:43:51;2.73;;;1.50;;
4148;SDS011;2088;51.032;7.082;2023-08-08T03:46:18;2.10;;;1.93;;
4148;SDS011;2088;51.032;7.082;2023-08-08T03:48:45;2.23;;;2.03;;
4148;SDS011;2088;51.032;7.082;2023-08-08T03:51:13;6.53;;;1.60;;
4148;SDS011;2088;51.032;7.082;2023-08-08T03:53:40;2.13;;;1.47;;
4148;SDS011;2088;51.032;7.082;2023-08-08T03:56:07;2.73;;;1.90;;
4148;SDS011;2088;51.032;7.082;2023-08-08T03:58:34;3.17;;;2.10;;
4148;SDS011;2088;51.032;7.082;2023-08-08T04:01:02;4.83;;;2.27;;
4148;SDS011;2088;51.032;7.082;2023-08-08T04:03:29;5.27;;;1.97;;
4148;SDS011;2088;51.032;7.082;2023-08-08T04:05:56;3.87;;;1.90;;
4148;SDS011;2088;51.032;7.082;2023-08-08T04:08:23;3.63;;;2.27;;
4148;SDS011;2088;51.032;7.082;2023-08-08T04:10:50;5.30;;;2.17;;
4148;SDS011;2088;51.032;7.082;2023-08-08T04:13:17;3.93;;;1.90;;
4148;SDS011;2088;51.032;7.082;2023-08-08T04:15:44;1.70;;;1.60;;
4148;SDS011;2088;51.032;7.082;2023-08-08T04:18:13;2.10;;;1.90;;
4148;SDS011;2088;51.032;7.082;2023-08-08T04:20:40;3.00;;;1.90;;
4148;SDS011;2088;51.032;7.082;2023-08-08T04:23:07;7.83;;;2.10;;
4148;SDS011;2088;51.032;7.082;2023-08-08T04:25:34;8.00;;;2.17;;
4148;SDS011;2088;51.032;7.082;2023-08-08T04:28:01;2.90;;;2.10;;
4148;SDS011;2088;51.032;7.082;2023-08-08T04:30:28;2.07;;;1.87;;
4148;SDS011;2088;51.032;7.082;2023-08-08T04:32:55;2.70;;;1.50;;
4148;SDS011;2088;51.032;7.082;2023-08-08T04:35:24;1.93;;;1.83;;
4148;SDS011;2088;51.032;7.082;2023-08-08T04:37:51;6.50;;;2.93;;
4148;SDS011;2088;51.032;7.082;2023-08-08T04:40:18;6.90;;;3.30;;
4148;SDS011;2088;51.032;7.082;2023-08-08T04:42:45;2.23;;;1.47;;
4148;SDS011;2088;51.032;7.082;2023-08-08T04:45:12;2.20;;;1.80;;
4148;SDS011;2088;51.032;7.082;2023-08-08T04:47:39;1.73;;;1.63;;
4148;SDS011;2088;51.032;7.082;2023-08-08T04:50:07;4.03;;;1.50;;
4148;SDS011;2088;51.032;7.082;2023-08-08T04:52:35;5.03;;;2.63;;
4148;SDS011;2088;51.032;7.082;2023-08-08T04:55:02;3.70;;;1.70;;
4148;SDS011;2088;51.032;7.082;2023-08-08T04:57:29;8.63;;;2.00;;
4148;SDS011;2088;51.032;7.082;2023-08-08T04:59:57;4.40;;;1.63;;
4148;SDS011;2088;51.032;7.082;2023-08-08T05:02:26;3.20;;;2.10;;
4148;SDS011;2088;51.032;7.082;2023-08-08T05:04:53;8.83;;;3.93;;
4148;SDS011;2088;51.032;7.082;2023-08-08T05:07:20;4.57;;;4.17;;
4148;SDS011;2088;51.032;7.082;2023-08-08T05:09:48;2.23;;;2.03;;
4148;SDS011;2088;51.032;7.082;2023-08-08T05:12:15;7.70;;;1.67;;
4148;SDS011;2088;51.032;7.082;2023-08-08T05:14:42;2.53;;;1.90;;
4148;SDS011;2088;51.032;7.082;2023-08-08T05:17:10;11.53;;;1.70;;
4148;SDS011;2088;51.032;7.082;2023-08-08T05:19:37;2.70;;;1.63;;
4148;SDS011;2088;51.032;7.082;2023-08-08T05:22:04;3.20;;;1.50;;
4148;SDS011;2088;51.032;7.082;2023-08-08T05:24:31;2.47;;;1.53;;
4148;SDS011;2088;51.032;7.082;2023-08-08T05:26:59;9.33;;;2.67;;
4148;SDS011;2088;51.032;7.082;2023-08-08T05:29:28;2.03;;;1.80;;
4148;SDS011;2088;51.032;7.082;2023-08-08T05:31:55;3.90;;;2.13;;
4148;SDS011;2088;51.032;7.082;2023-08-08T05:34:23;2.47;;;2.03;;
4148;SDS011;2088;51.032;7.082;2023-08-08T05:36:50;3.93;;;1.67;;
4148;SDS011;2088;51.032;7.082;2023-08-08T05:39:17;4.57;;;2.00;;
4148;SDS011;2088;51.032;7.082;2023-08-08T05:41:44;2.43;;;2.20;;
4148;SDS011;2088;51.032;7.082;2023-08-08T05:44:12;3.93;;;1.97;;
4148;SDS011;2088;51.032;7.082;2023-08-08T05:46:39;3.20;;;1.83;;
4148;SDS011;2088;51.032;7.082;2023-08-08T05:49:06;3.77;;;2.90;;
4148;SDS011;2088;51.032;7.082;2023-08-08T05:51:34;5.50;;;2.47;;
4148;SDS011;2088;51.032;7.082;2023-08-08T05:54:01;3.83;;;2.03;;
4148;SDS011;2088;51.032;7.082;2023-08-08T05:56:33;3.73;;;1.83;;
4148;SDS011;2088;51.032;7.082;2023-08-08T05:59:01;3.83;;;2.40;;
4148;SDS011;2088;51.032;7.082;2023-08-08T06:01:29;5.33;;;2.17;;
4148;SDS011;2088;51.032;7.082;2023-08-08T06:03:56;4.20;;;2.33;;
4148;SDS011;2088;51.032;7.082;2023-08-08T06:06:24;12.93;;;2.40;;
4148;SDS011;2088;51.032;7.082;2023-08-08T06:08:51;5.27;;;2.20;;
4148;SDS011;2088;51.032;7.082;2023-08-08T06:11:18;4.60;;;2.60;;
4148;SDS011;2088;51.032;7.082;2023-08-08T06:13:46;5.00;;;2.57;;
4148;SDS011;2088;51.032;7.082;2023-08-08T06:16:13;7.53;;;2.73;;
4148;SDS011;2088;51.032;7.082;2023-08-08T06:18:42;13.60;;;2.70;;
4148;SDS011;2088;51.032;7.082;2023-08-08T06:21:09;6.87;;;3.17;;
4148;SDS011;2088;51.032;7.082;2023-08-08T06:23:36;7.13;;;3.00;;
4148;SDS011;2088;51.032;7.082;2023-08-08T06:26:04;6.83;;;3.03;;
4148;SDS011;2088;51.032;7.082;2023-08-08T06:28:31;5.00;;;2.20;;
4148;SDS011;2088;51.032;7.082;2023-08-08T06:30:58;7.10;;;2.70;;
4148;SDS011;2088;51.032;7.082;2023-08-08T06:33:25;4.97;;;2.57;;
4148;SDS011;2088;51.032;7.082;2023-08-08T06:35:55;17.93;;;2.77;;
4148;SDS011;2088;51.032;7.082;2023-08-08T06:38:22;8.93;;;2.33;;
4148;SDS011;2088;51.032;7.082;2023-08-08T06:40:49;15.07;;;2.83;;
4148;SDS011;2088;51.032;7.082;2023-08-08T06:43:16;5.70;;;2.93;;
4148;SDS011;2088;51.032;7.082;2023-08-08T06:45:43;34.60;;;4.53;;
4148;SDS011;2088;51.032;7.082;2023-08-08T06:48:10;4.80;;;2.33;;
4148;SDS011;2088;51.032;7.082;2023-08-08T06:50:37;8.60;;;3.07;;
4148;SDS011;2088;51.032;7.082;2023-08-08T06:53:06;10.70;;;2.40;;
4148;SDS011;2088;51.032;7.082;2023-08-08T06:55:33;15.03;;;2.80;;
4148;SDS011;2088;51.032;7.082;2023-08-08T06:58:00;5.30;;;2.33;;
4148;SDS011;2088;51.032;7.082;2023-08-08T07:00:27;12.70;;;2.37;;
4148;SDS011;2088;51.032;7.082;2023-08-08T07:02:54;4.07;;;2.37;;
4148;SDS011;2088;51.032;7.082;2023-08-08T07:05:22;4.40;;;2.13;;
4148;SDS011;2088;51.032;7.082;2023-08-08T07:07:49;3.33;;;2.30;;
4148;SDS011;2088;51.032;7.082;2023-08-08T07:10:18;3.90;;;1.90;;
4148;SDS011;2088;51.032;7.082;2023-08-08T07:12:45;4.90;;;1.77;;
4148;SDS011;2088;51.032;7.082;2023-08-08T07:15:13;5.53;;;2.67;;
4148;SDS011;2088;51.032;7.082;2023-08-08T07:17:40;8.27;;;2.03;;
4148;SDS011;2088;51.032;7.082;2023-08-08T07:20:08;3.30;;;2.17;;
4148;SDS011;2088;51.032;7.082;2023-08-08T07:22:38;4.10;;;3.23;;
4148;SDS011;2088;51.032;7.082;2023-08-08T07:25:06;4.70;;;2.10;;
4148;SDS011;2088;51.032;7.082;2023-08-08T07:27:34;3.70;;;1.90;;
4148;SDS011;2088;51.032;7.082;2023-08-08T07:30:01;6.23;;;2.50;;
4148;SDS011;2088;51.032;7.082;2023-08-08T07:32:28;5.27;;;2.50;;
4148;SDS011;2088;51.032;7.082;2023-08-08T07:34:55;4.93;;;2.20;;
4148;SDS011;2088;51.032;7.082;2023-08-08T07:37:22;3.93;;;2.70;;
4148;SDS011;2088;51.032;7.082;2023-08-08T07:39:50;5.03;;;2.20;;
4148;SDS011;2088;51.032;7.082;2023-08-08T07:42:17;5.03;;;2.80;;
4148;SDS011;2088;51.032;7.082;2023-08-08T07:44:45;8.87;;;3.07;;
4148;SDS011;2088;51.032;7.082;2023-08-08T07:47:12;5.77;;;2.50;;
4148;SDS011;2088;51.032;7.082;2023-08-08T07:49:39;14.40;;;4.37;;
4148;SDS011;2088;51.032;7.082;2023-08-08T07:52:06;7.40;;;2.50;;
4148;SDS011;2088;51.032;7.082;2023-08-08T07:54:34;8.23;;;3.77;;
4148;SDS011;2088;51.032;7.082;2023-08-08T07:57:01;9.40;;;3.27;;
4148;SDS011;2088;51.032;7.082;2023-08-08T07:59:29;3.67;;;2.70;;
4148;SDS011;2088;51.032;7.082;2023-08-08T08:01:57;3.30;;;2.43;;
4148;SDS011;2088;51.032;7.082;2023-08-08T08:04:24;6.60;;;2.70;;
4148;SDS011;2088;51.032;7.082;2023-08-08T08:06:51;3.73;;;2.63;;
4148;SDS011;2088;51.032;7.082;2023-08-08T08:09:18;10.93;;;2.63;;
4148;SDS011;2088;51.032;7.082;2023-08-08T08:11:45;4.67;;;2.03;;
4148;SDS011;2088;51.032;7.082;2023-08-08T08:14:12;5.43;;;2.70;;
4148;SDS011;2088;51.032;7.082;2023-08-08T08:16:39;10.43;;;2.40;;
4148;SDS011;2088;51.032;7.082;2023-08-08T08:19:08;2.80;;;1.97;;
4148;SDS011;2088;51.032;7.082;2023-08-08T08:21:35;5.97;;;2.90;;
4148;SDS011;2088;51.032;7.082;2023-08-08T08:24:02;7.90;;;2.70;;
4148;SDS011;2088;51.032;7.082;2023-08-08T08:26:29;3.57;;;2.17;;
4148;SDS011;2088;51.032;7.082;2023-08-08T08:28:57;7.70;;;2.80;;
4148;SDS011;2088;51.032;7.082;2023-08-08T08:31:24;5.33;;;2.10;;
4148;SDS011;2088;51.032;7.082;2023-08-08T08:33:51;6.30;;;2.20;;
4148;SDS011;2088;51.032;7.082;2023-08-08T08:36:21;6.23;;;3.10;;
4148;SDS011;2088;51.032;7.082;2023-08-08T08:38:48;6.57;;;2.20;;
4148;SDS011;2088;51.032;7.082;2023-08-08T08:41:15;2.33;;;2.13;;
4148;SDS011;2088;51.032;7.082;2023-08-08T08:43:44;6.57;;;3.33;;
4148;SDS011;2088;51.032;7.082;2023-08-08T08:46:11;11.43;;;2.80;;
4148;SDS011;2088;51.032;7.082;2023-08-08T08:48:38;5.50;;;2.37;;
4148;SDS011;2088;51.032;7.082;2023-08-08T08:51:05;6.43;;;3.13;;
4148;SDS011;2088;51.032;7.082;2023-08-08T08:53:34;6.30;;;2.97;;
4148;SDS011;2088;51.032;7.082;2023-08-08T08:56:04;4.33;;;2.40;;
4148;SDS011;2088;51.032;7.082;2023-08-08T08:58:31;9.50;;;3.17;;
4148;SDS011;2088;51.032;7.082;2023-08-08T09:00:58;5.90;;;3.73;;
4148;SDS011;2088;51.032;7.082;2023-08-08T09:03:25;6.60;;;3.73;;
4148;SDS011;2088;51.032;7.082;2023-08-08T09:05:52;4.33;;;3.03;;
4148;SDS011;2088;51.032;7.082;2023-08-08T09:08:20;10.83;;;3.30;;
4148;SDS011;2088;51.032;7.082;2023-08-08T09:10:48;5.80;;;3.17;;
4148;SDS011;2088;51.032;7.082;2023-08-08T09:13:16;7.90;;;3.33;;
4148;SDS011;2088;51.032;7.082;2023-08-08T09:15:46;4.17;;;3.77;;
4148;SDS011;2088;51.032;7.082;2023-08-08T09:18:13;8.83;;;3.40;;
4148;SDS011;2088;51.032;7.082;2023-08-08T09:20:40;5.93;;;3.40;;
4148;SDS011;2088;51.032;7.082;2023-08-08T09:23:08;7.80;;;3.20;;
4148;SDS011;2088;51.032;7.082;2023-08-08T09:25:35;7.17;;;3.70;;
4148;SDS011;2088;51.032;7.082;2023-08-08T09:28:04;3.87;;;3.27;;
4148;SDS011;2088;51.032;7.082;2023-08-08T09:30:31;4.83;;;3.90;;
4148;SDS011;2088;51.032;7.082;2023-08-08T09:32:58;8.60;;;3.50;;
4148;SDS011;2088;51.032;7.082;2023-08-08T09:35:26;4.30;;;3.87;;
4148;SDS011;2088;51.032;7.082;2023-08-08T09:37:54;9.43;;;4.23;;
4148;SDS011;2088;51.032;7.082;2023-08-08T09:40:22;7.20;;;3.87;;
4148;SDS011;2088;51.032;7.082;2023-08-08T09:42:50;7.27;;;4.17;;
4148;SDS011;2088;51.032;7.082;2023-08-08T09:45:19;20.17;;;5.20;;
4148;SDS011;2088;51.032;7.082;2023-08-08T09:47:48;9.20;;;3.77;;
4148;SDS011;2088;51.032;7.082;2023-08-08T09:50:15;4.47;;;3.60;;
4148;SDS011;2088;51.032;7.082;2023-08-08T09:52:43;6.27;;;4.00;;
4148;SDS011;2088;51.032;7.082;2023-08-08T09:55:10;16.23;;;4.63;;
4148;SDS011;2088;51.032;7.082;2023-08-08T09:57:38;8.30;;;4.67;;
4148;SDS011;2088;51.032;7.082;2023-08-08T10:00:06;14.73;;;4.80;;
4148;SDS011;2088;51.032;7.082;2023-08-08T10:02:42;12.60;;;4.80;;
4148;SDS011;2088;51.032;7.082;2023-08-08T10:05:09;9.27;;;4.20;;
4148;SDS011;2088;51.032;7.082;2023-08-08T10:07:37;9.60;;;4.50;;
4148;SDS011;2088;51.032;7.082;2023-08-08T10:10:06;5.87;;;4.90;;
4148;SDS011;2088;51.032;7.082;2023-08-08T10:12:34;9.10;;;4.40;;
4148;SDS011;2088;51.032;7.082;2023-08-08T10:15:03;11.93;;;4.50;;
4148;SDS011;2088;51.032;7.082;2023-08-08T10:17:34;11.73;;;4.20;;
4148;SDS011;2088;51.032;7.082;2023-08-08T10:20:03;5.23;;;3.97;;
4148;SDS011;2088;51.032;7.082;2023-08-08T10:22:35;8.47;;;4.37;;
4148;SDS011;2088;51.032;7.082;2023-08-08T10:25:03;6.97;;;4.57;;
4148;SDS011;2088;51.032;7.082;2023-08-08T10:27:31;7.00;;;4.30;;
4148;SDS011;2088;51.032;7.082;2023-08-08T10:30:05;9.07;;;4.80;;
4148;SDS011;2088;51.032;7.082;2023-08-08T10:32:40;7.33;;;4.27;;
4148;SDS011;2088;51.032;7.082;2023-08-08T10:35:09;7.90;;;3.40;;
4148;SDS011;2088;51.032;7.082;2023-08-08T10:37:37;7.40;;;3.60;;
4148;SDS011;2088;51.032;7.082;2023-08-08T10:40:04;2.97;;;2.40;;
4148;SDS011;2088;51.032;7.082;2023-08-08T10:42:32;12.90;;;2.53;;
4148;SDS011;2088;51.032;7.082;2023-08-08T10:45:00;4.97;;;3.17;;
4148;SDS011;2088;51.032;7.082;2023-08-08T10:47:30;5.87;;;2.50;;
4148;SDS011;2088;51.032;7.082;2023-08-08T10:50:03;6.03;;;3.23;;
4148;SDS011;2088;51.032;7.082;2023-08-08T10:52:32;4.30;;;2.30;;
4148;SDS011;2088;51.032;7.082;2023-08-08T10:55:01;15.37;;;2.70;;
4148;SDS011;2088;51.032;7.082;2023-08-08T10:57:28;5.00;;;2.30;;
4148;SDS011;2088;51.032;7.082;2023-08-08T10:59:55;7.53;;;2.37;;
4148;SDS011;2088;51.032;7.082;2023-08-08T11:02:22;3.83;;;2.07;;
4148;SDS011;2088;51.032;7.082;2023-08-08T11:04:49;5.67;;;2.10;;
4148;SDS011;2088;51.032;7.082;2023-08-08T11:07:17;2.83;;;2.53;;
4148;SDS011;2088;51.032;7.082;2023-08-08T11:09:45;4.63;;;2.77;;
4148;SDS011;2088;51.032;7.082;2023-08-08T11:12:15;8.30;;;2.50;;
4148;SDS011;2088;51.032;7.082;2023-08-08T11:14:42;2.60;;;2.10;;
4148;SDS011;2088;51.032;7.082;2023-08-08T11:17:10;2.43;;;1.77;;
4148;SDS011;2088;51.032;7.082;2023-08-08T11:19:38;8.30;;;2.30;;
4148;SDS011;2088;51.032;7.082;2023-08-08T11:22:08;4.50;;;2.40;;
4148;SDS011;2088;51.032;7.082;2023-08-08T11:24:36;7.37;;;2.37;;
4148;SDS011;2088;51.032;7.082;2023-08-08T11:27:04;2.50;;;1.80;;
4148;SDS011;2088;51.032;7.082;2023-08-08T11:29:32;5.90;;;2.33;;
4148;SDS011;2088;51.032;7.082;2023-08-08T11:31:59;2.57;;;1.67;;
4148;SDS011;2088;51.032;7.082;2023-08-08T11:34:29;8.10;;;2.40;;
4148;SDS011;2088;51.032;7.082;2023-08-08T11:36:57;3.13;;;2.20;;
4148;SDS011;2088;51.032;7.082;2023-08-08T11:39:24;2.90;;;1.40;;
4148;SDS011;2088;51.032;7.082;2023-08-08T11:41:52;4.60;;;1.90;;
4148;SDS011;2088;51.032;7.082;2023-08-08T11:44:21;3.73;;;1.80;;
4148;SDS011;2088;51.032;7.082;2023-08-08T11:46:48;3.50;;;1.60;;
4148;SDS011;2088;51.032;7.082;2023-08-08T11:49:16;2.27;;;2.07;;
4148;SDS011;2088;51.032;7.082;2023-08-08T11:51:43;6.50;;;1.63;;
4148;SDS011;2088;51.032;7.082;2023-08-08T11:54:11;1.97;;;1.50;;
4148;SDS011;2088;51.032;7.082;2023-08-08T11:56:38;1.77;;;1.37;;
4148;SDS011;2088;51.032;7.082;2023-08-08T11:59:05;3.20;;;1.73;;
4148;SDS011;2088;51.032;7.082;2023-08-08T12:01:35;3.40;;;1.67;;
4148;SDS011;2088;51.032;7.082;2023-08-08T12:04:06;4.83;;;1.47;;
4148;SDS011;2088;51.032;7.082;2023-08-08T12:06:36;3.80;;;1.87;;
4148;SDS011;2088;51.032;7.082;2023-08-08T12:09:04;2.90;;;2.07;;
4148;SDS011;2088;51.032;7.082;2023-08-08T12:11:33;7.33;;;1.83;;
4148;SDS011;2088;51.032;7.082;2023-08-08T12:14:01;3.53;;;2.33;;
4148;SDS011;2088;51.032;7.082;2023-08-08T12:16:28;2.20;;;1.60;;
4148;SDS011;2088;51.032;7.082;2023-08-08T12:18:57;1.73;;;1.50;;
4148;SDS011;2088;51.032;7.082;2023-08-08T12:21:24;3.97;;;1.90;;
4148;SDS011;2088;51.032;7.082;2023-08-08T12:23:51;3.77;;;1.60;;
4148;SDS011;2088;51.032;7.082;2023-08-08T12:26:18;2.60;;;1.40;;
4148;SDS011;2088;51.032;7.082;2023-08-08T12:28:45;1.83;;;1.67;;
4148;SDS011;2088;51.032;7.082;2023-08-08T12:31:12;4.57;;;1.63;;
4148;SDS011;2088;51.032;7.082;2023-08-08T12:33:39;6.80;;;2.20;;
4148;SDS011;2088;51.032;7.082;2023-08-08T12:36:08;4.40;;;1.53;;
4148;SDS011;2088;51.032;7.082;2023-08-08T12:38:35;3.20;;;1.70;;
4148;SDS011;2088;51.032;7.082;2023-08-08T12:41:02;4.63;;;2.00;;
4148;SDS011;2088;51.032;7.082;2023-08-08T12:43:29;6.40;;;1.67;;
4148;SDS011;2088;51.032;7.082;2023-08-08T12:45:56;3.33;;;1.40;;
4148;SDS011;2088;51.032;7.082;2023-08-08T12:48:23;4.90;;;2.03;;
4148;SDS011;2088;51.032;7.082;2023-08-08T12:50:50;4.10;;;2.70;;
4148;SDS011;2088;51.032;7.082;2023-08-08T12:53:19;10.83;;;2.53;;
4148;SDS011;2088;51.032;7.082;2023-08-08T12:55:46;4.53;;;2.77;;
4148;SDS011;2088;51.032;7.082;2023-08-08T12:58:13;2.60;;;2.40;;
4148;SDS011;2088;51.032;7.082;2023-08-08T13:00:40;6.40;;;2.33;;
4148;SDS011;2088;51.032;7.082;2023-08-08T13:03:07;4.67;;;2.63;;
4148;SDS011;2088;51.032;7.082;2023-08-08T13:05:35;7.73;;;2.80;;
4148;SDS011;2088;51.032;7.082;2023-08-08T13:08:02;3.43;;;2.30;;
4148;SDS011;2088;51.032;7.082;2023-08-08T13:10:30;4.10;;;2.83;;
4148;SDS011;2088;51.032;7.082;2023-08-08T13:12:57;3.40;;;2.60;;
4148;SDS011;2088;51.032;7.082;2023-08-08T13:15:24;4.20;;;2.23;;
4148;SDS011;2088;51.032;7.082;2023-08-08T13:17:51;4.37;;;3.20;;
4148;SDS011;2088;51.032;7.082;2023-08-08T13:20:19;4.67;;;2.50;;
4148;SDS011;2088;51.032;7.082;2023-08-08T13:22:47;7.37;;;2.53;;
4148;SDS011;2088;51.032;7.082;2023-08-08T13:25:14;5.67;;;2.83;;
4148;SDS011;2088;51.032;7.082;2023-08-08T13:27:45;3.50;;;2.17;;
4148;SDS011;2088;51.032;7.082;2023-08-08T13:30:12;6.37;;;3.10;;
4148;SDS011;2088;51.032;7.082;2023-08-08T13:32:41;7.37;;;3.00;;
4148;SDS011;2088;51.032;7.082;2023-08-08T13:35:08;9.27;;;3.80;;
4148;SDS011;2088;51.032;7.082;2023-08-08T13:37:35;5.67;;;2.47;;
4148;SDS011;2088;51.032;7.082;2023-08-08T13:40:02;7.30;;;2.63;;
4148;SDS011;2088;51.032;7.082;2023-08-08T13:42:30;3.50;;;1.90;;
4148;SDS011;2088;51.032;7.082;2023-08-08T13:44:58;4.50;;;2.33;;
4148;SDS011;2088;51.032;7.082;2023-08-08T13:47:26;7.07;;;2.30;;
4148;SDS011;2088;51.032;7.082;2023-08-08T13:49:53;13.13;;;2.40;;
4148;SDS011;2088;51.032;7.082;2023-08-08T13:52:20;6.83;;;2.17;;
4148;SDS011;2088;51.032;7.082;2023-08-08T13:54:47;9.33;;;2.37;;
4148;SDS011;2088;51.032;7.082;2023-08-08T13:57:14;5.77;;;1.97;;
4148;SDS011;2088;51.032;7.082;2023-08-08T13:59:41;2.70;;;2.43;;
4148;SDS011;2088;51.032;7.082;2023-08-08T14:02:09;2.37;;;2.17;;
4148;SDS011;2088;51.032;7.082;2023-08-08T14:04:36;5.70;;;2.53;;
4148;SDS011;2088;51.032;7.082;2023-08-08T14:07:03;3.70;;;2.07;;
4148;SDS011;2088;51.032;7.082;2023-08-08T14:09:32;4.07;;;2.50;;
4148;SDS011;2088;51.032;7.082;2023-08-08T14:11:59;3.83;;;1.80;;
4148;SDS011;2088;51.032;7.082;2023-08-08T14:14:26;3.83;;;1.60;;
4148;SDS011;2088;51.032;7.082;2023-08-08T14:16:53;3.27;;;1.37;;
4148;SDS011;2088;51.032;7.082;2023-08-08T14:19:21;2.00;;;1.37;;
4148;SDS011;2088;51.032;7.082;2023-08-08T14:21:48;2.43;;;1.40;;
4148;SDS011;2088;51.032;7.082;2023-08-08T14:24:15;4.27;;;1.40;;
4148;SDS011;2088;51.032;7.082;2023-08-08T14:26:42;3.00;;;1.57;;
4148;SDS011;2088;51.032;7.082;2023-08-08T14:29:10;3.50;;;1.30;;
4148;SDS011;2088;51.032;7.082;2023-08-08T14:31:37;2.60;;;1.67;;
4148;SDS011;2088;51.032;7.082;2023-08-08T14:34:04;3.83;;;1.40;;
4148;SDS011;2088;51.032;7.082;2023-08-08T14:36:32;2.30;;;1.70;;
4148;SDS011;2088;51.032;7.082;2023-08-08T14:38:59;3.10;;;1.47;;
4148;SDS011;2088;51.032;7.082;2023-08-08T14:41:26;2.23;;;1.40;;
4148;SDS011;2088;51.032;7.082;2023-08-08T14:43:53;3.40;;;1.33;;
4148;SDS011;2088;51.032;7.082;2023-08-08T14:46:20;5.47;;;1.30;;
4148;SDS011;2088;51.032;7.082;2023-08-08T14:48:47;1.20;;;0.90;;
4148;SDS011;2088;51.032;7.082;2023-08-08T14:51:14;2.50;;;1.40;;
4148;SDS011;2088;51.032;7.082;2023-08-08T14:53:45;2.17;;;1.43;;
4148;SDS011;2088;51.032;7.082;2023-08-08T14:56:12;5.73;;;1.70;;
4148;SDS011;2088;51.032;7.082;2023-08-08T14:58:39;1.73;;;1.20;;
4148;SDS011;2088;51.032;7.082;2023-08-08T15:01:07;1.50;;;1.13;;
4148;SDS011;2088;51.032;7.082;2023-08-08T15:03:34;3.50;;;1.60;;
4148;SDS011;2088;51.032;7.082;2023-08-08T15:06:01;8.33;;;1.50;;
4148;SDS011;2088;51.032;7.082;2023-08-08T15:08:28;3.20;;;1.20;;
4148;SDS011;2088;51.032;7.082;2023-08-08T15:10:56;3.63;;;1.47;;
4148;SDS011;2088;51.032;7.082;2023-08-08T15:13:23;3.87;;;1.57;;
4148;SDS011;2088;51.032;7.082;2023-08-08T15:15:50;1.47;;;1.20;;
4148;SDS011;2088;51.032;7.082;2023-08-08T15:18:17;1.60;;;1.40;;